createdAt,value
2022-08-05T00:00:33.467Z,95.95
2022-08-05T00:01:36.534Z,95.75
2022-08-05T00:02:33.412Z,95.55
2022-08-05T00:03:32.302Z,95.45
2022-08-05T00:04:32.290Z,95.65
2022-08-05T00:06:04.637Z,95.85
2022-08-05T00:06:35.981Z,95.85
2022-08-05T00:08:00.169Z,96.05
2022-08-05T00:08:35.113Z,96.15
2022-08-05T00:09:32.225Z,96.25
2022-08-05T00:10:32.204Z,96.45
2022-08-05T00:11:49.423Z,96.56
2022-08-05T00:12:56.453Z,96.61
2022-08-05T00:13:39.389Z,96.71
2022-08-05T00:14:33.147Z,96.61
2022-08-05T00:15:55.410Z,96.61
2022-08-05T00:16:35.376Z,96.61
2022-08-05T00:17:32.453Z,96.51
2022-08-05T00:18:32.098Z,96.51
2022-08-05T00:19:33.106Z,96.41
2022-08-05T00:20:33.069Z,96.41
2022-08-05T00:21:35.644Z,96.51
2022-08-05T00:22:32.041Z,96.51
2022-08-05T00:23:46.643Z,96.51
2022-08-05T00:24:33.040Z,96.41
2022-08-05T00:25:45.397Z,96.31
2022-08-05T00:26:33.021Z,96.41
2022-08-05T00:27:35.758Z,96.41
2022-08-05T00:28:31.962Z,96.21
2022-08-05T00:29:37.618Z,96.01
2022-08-05T00:30:32.934Z,95.90
2022-08-05T00:31:54.332Z,95.61
2022-08-05T00:32:36.035Z,95.70
2022-08-05T00:34:55.464Z,95.45
2022-08-05T00:34:55.858Z,95.35
2022-08-05T00:35:33.347Z,95.35
2022-08-05T00:37:10.308Z,95.55
2022-08-05T00:37:51.375Z,95.81
2022-08-05T00:38:33.931Z,95.90
2022-08-05T00:39:37.066Z,95.61
2022-08-05T00:40:32.806Z,95.20
2022-08-05T00:41:51.675Z,95.20
2022-08-05T00:42:32.878Z,95.20
2022-08-05T00:43:46.670Z,95.25
2022-08-05T00:44:32.813Z,95.30
2022-08-05T00:45:38.325Z,95.30
2022-08-05T00:46:36.969Z,95.40
2022-08-05T00:47:56.367Z,95.30
2022-08-05T00:48:32.679Z,95.00
2022-08-05T00:49:32.659Z,95.10
2022-08-05T00:50:31.692Z,95.10
2022-08-05T00:51:50.382Z,94.90
2022-08-05T00:52:35.637Z,94.80
2022-08-05T00:54:00.498Z,94.80
2022-08-05T00:54:32.597Z,94.70
2022-08-05T00:55:41.982Z,94.59
2022-08-05T00:56:32.592Z,94.49
2022-08-05T00:57:31.628Z,94.39
2022-08-05T00:58:32.535Z,94.29
2022-08-05T00:59:42.010Z,94.04
2022-08-05T01:00:32.551Z,94.19
2022-08-05T01:01:48.262Z,94.29
2022-08-05T01:02:32.477Z,94.29
2022-08-05T01:03:33.416Z,94.19
2022-08-05T01:04:31.457Z,94.09
2022-08-05T01:05:31.447Z,93.89
2022-08-05T01:06:32.553Z,93.99
2022-08-05T01:07:31.944Z,94.09
2022-08-05T01:08:43.059Z,94.19
2022-08-05T01:09:32.380Z,93.79
2022-08-05T01:10:31.363Z,93.89
2022-08-05T01:11:37.057Z,93.59
2022-08-05T01:12:34.351Z,93.29
2022-08-05T01:13:57.549Z,93.29
2022-08-05T01:14:32.309Z,93.29
2022-08-05T01:15:35.584Z,93.29
2022-08-05T01:16:32.282Z,93.38
2022-08-05T01:17:31.264Z,93.29
2022-08-05T01:18:32.282Z,93.18
2022-08-05T01:19:57.004Z,92.88
2022-08-05T01:20:32.225Z,92.98
2022-08-05T01:21:38.103Z,93.33
2022-08-05T01:22:32.225Z,93.43
2022-08-05T01:23:34.820Z,93.53
2022-08-05T01:24:31.216Z,93.93
2022-08-05T01:25:40.907Z,94.04
2022-08-05T01:26:32.138Z,94.34
2022-08-05T01:27:33.039Z,94.64
2022-08-05T01:28:31.108Z,94.74
2022-08-05T01:29:31.099Z,94.84
2022-08-05T01:30:33.634Z,95.14
2022-08-05T01:31:34.093Z,95.14
2022-08-05T01:32:35.111Z,95.10
2022-08-05T01:33:35.374Z,95.10
2022-08-05T01:34:31.031Z,95.00
2022-08-05T01:35:51.294Z,94.74
2022-08-05T01:36:32.020Z,95.14
2022-08-05T01:37:31.243Z,95.25
2022-08-05T01:38:30.972Z,95.35
2022-08-05T01:39:45.554Z,95.55
2022-08-05T01:40:31.941Z,95.55
2022-08-05T01:41:30.964Z,95.65
2022-08-05T01:42:30.911Z,95.75
2022-08-05T01:43:30.912Z,95.95
2022-08-05T01:44:34.169Z,96.40
2022-08-05T01:45:34.984Z,96.70
2022-08-05T01:46:42.529Z,97.21
2022-08-05T01:47:39.336Z,97.41
2022-08-05T01:48:31.830Z,97.61
2022-08-05T01:50:00.487Z,97.81
2022-08-05T01:50:31.797Z,98.02
2022-08-05T01:51:33.850Z,98.36
2022-08-05T01:52:33.782Z,98.52
2022-08-05T01:53:57.822Z,98.67
2022-08-05T01:54:31.742Z,98.67
2022-08-05T01:55:30.732Z,98.97
2022-08-05T01:58:13.190Z,99.27
2022-08-05T01:58:13.785Z,99.38
2022-08-05T01:58:44.613Z,99.48
2022-08-05T01:59:31.672Z,99.62
2022-08-05T02:00:31.141Z,99.78
2022-08-05T02:01:38.721Z,99.88
2022-08-05T02:02:31.696Z,99.68
2022-08-05T02:03:33.969Z,99.58
2022-08-05T02:04:30.642Z,99.78
2022-08-05T02:05:30.584Z,99.78
2022-08-05T02:06:37.345Z,99.68
2022-08-05T02:07:31.625Z,99.78
2022-08-05T02:08:31.658Z,99.68
2022-08-05T02:09:30.535Z,99.48
2022-08-05T02:10:30.527Z,99.38
2022-08-05T02:11:34.274Z,99.27
2022-08-05T02:12:33.592Z,99.38
2022-08-05T02:13:36.470Z,99.38
2022-08-05T02:14:31.875Z,99.48
2022-08-05T02:15:33.226Z,99.68
2022-08-05T02:16:31.201Z,99.68
2022-08-05T02:18:32.484Z,99.78
2022-08-05T02:18:35.019Z,99.68
2022-08-05T02:19:33.475Z,99.48
2022-08-05T02:20:30.384Z,99.27
2022-08-05T02:21:31.142Z,99.07
2022-08-05T02:22:31.361Z,98.77
2022-08-05T02:23:30.361Z,98.57
2022-08-05T02:24:30.332Z,98.57
2022-08-05T02:25:33.006Z,98.57
2022-08-05T02:26:31.063Z,98.71
2022-08-05T02:27:59.866Z,98.67
2022-08-05T02:28:36.421Z,98.71
2022-08-05T02:29:58.554Z,98.71
2022-08-05T02:30:31.269Z,98.61
2022-08-05T02:31:35.028Z,98.71
2022-08-05T02:32:33.247Z,98.82
2022-08-05T02:33:36.250Z,99.02
2022-08-05T02:34:31.256Z,99.12
2022-08-05T02:35:33.295Z,99.22
2022-08-05T02:36:31.929Z,99.32
2022-08-05T02:37:32.053Z,99.57
2022-08-05T02:38:35.191Z,99.77
2022-08-05T02:39:31.148Z,99.87
2022-08-05T02:40:30.136Z,99.98
2022-08-05T02:41:42.844Z,99.98
2022-08-05T02:42:36.010Z,99.99
2022-08-05T02:43:34.439Z,99.99
2022-08-05T02:44:30.051Z,99.99
2022-08-05T02:45:52.644Z,99.99
2022-08-05T02:46:31.020Z,99.99
2022-08-05T02:48:07.722Z,99.99
2022-08-05T02:48:31.032Z,99.99
2022-08-05T02:49:36.460Z,99.99
2022-08-05T02:50:30.963Z,99.99
2022-08-05T02:52:03.639Z,99.99
2022-08-05T02:52:33.983Z,99.99
2022-08-05T02:53:38.945Z,99.99
2022-08-05T02:54:34.955Z,99.99
2022-08-05T02:56:00.129Z,99.99
2022-08-05T02:56:30.996Z,99.99
2022-08-05T02:58:12.113Z,99.99
2022-08-05T02:58:30.856Z,99.99
2022-08-05T02:59:29.836Z,99.99
2022-08-05T03:00:30.827Z,99.99
2022-08-05T03:01:29.892Z,99.99
2022-08-05T03:02:29.828Z,99.99
2022-08-05T03:03:34.174Z,99.99
2022-08-05T03:04:30.795Z,99.99
2022-08-05T03:06:55.095Z,99.99
2022-08-05T03:06:55.960Z,99.99
2022-08-05T03:08:01.155Z,99.99
2022-08-05T03:08:30.721Z,99.99
2022-08-05T03:09:38.325Z,99.99
2022-08-05T03:10:30.726Z,99.99
2022-08-05T03:11:54.769Z,99.99
2022-08-05T03:12:33.707Z,99.99
2022-08-05T03:13:52.209Z,99.99
2022-08-05T03:14:30.674Z,99.99
2022-08-05T03:15:29.672Z,99.99
2022-08-05T03:16:29.624Z,99.99
2022-08-05T03:17:29.604Z,99.99
2022-08-05T03:18:30.100Z,99.99
2022-08-05T03:19:33.230Z,99.99
2022-08-05T03:20:30.635Z,99.99
2022-08-05T03:21:29.560Z,99.99
2022-08-05T03:22:32.364Z,99.99
2022-08-05T03:23:29.526Z,99.99
2022-08-05T03:24:30.817Z,99.99
2022-08-05T03:25:33.508Z,99.99
2022-08-05T03:26:32.433Z,99.99
2022-08-05T03:27:59.633Z,99.99
2022-08-05T03:28:30.476Z,99.99
2022-08-05T03:29:44.855Z,99.99
2022-08-05T03:30:34.122Z,99.99
2022-08-05T03:31:57.087Z,99.99
2022-08-05T03:32:33.479Z,99.99
2022-08-05T03:33:32.282Z,99.99
2022-08-05T03:34:30.392Z,99.99
2022-08-05T03:35:29.382Z,99.99
2022-08-05T03:36:30.590Z,99.99
2022-08-05T03:37:29.352Z,99.99
2022-08-05T03:38:33.323Z,99.99
2022-08-05T03:39:31.584Z,99.99
2022-08-05T03:40:31.879Z,99.99
2022-08-05T03:41:32.979Z,99.99
2022-08-05T03:42:32.825Z,99.99
2022-08-05T03:44:09.796Z,99.99
2022-08-05T03:44:30.264Z,99.99
2022-08-05T03:45:29.246Z,99.99
2022-08-05T03:46:32.555Z,99.99
2022-08-05T03:47:35.270Z,99.99
2022-08-05T03:48:30.236Z,99.99
2022-08-05T03:49:30.819Z,99.99
2022-08-05T03:50:29.186Z,99.99
2022-08-05T03:52:37.323Z,99.99
2022-08-05T03:52:39.254Z,99.99
2022-08-05T03:54:59.318Z,99.99
2022-08-05T03:55:52.021Z,99.99
2022-08-05T03:56:04.663Z,99.99
2022-08-05T03:56:33.049Z,99.99
2022-08-05T03:57:41.322Z,99.99
2022-08-05T03:58:30.139Z,99.99
2022-08-05T03:59:47.678Z,99.99
2022-08-05T04:00:30.060Z,99.99
2022-08-05T04:01:29.084Z,99.99
2022-08-05T04:02:38.515Z,99.99
2022-08-05T04:03:30.012Z,99.99
2022-08-05T04:04:29.031Z,99.99
2022-08-05T04:05:33.198Z,99.99
2022-08-05T04:06:29.983Z,99.99
2022-08-05T04:07:28.966Z,99.99
2022-08-05T04:08:34.617Z,99.99
2022-08-05T04:09:29.963Z,99.99
2022-08-05T04:10:37.199Z,99.99
2022-08-05T04:11:50.661Z,99.99
2022-08-05T04:12:32.917Z,99.99
2022-08-05T04:13:50.590Z,99.99
2022-08-05T04:14:31.137Z,99.99
2022-08-05T04:15:33.114Z,99.99
2022-08-05T04:16:32.529Z,99.99
2022-08-05T04:17:55.468Z,99.99
2022-08-05T04:18:29.828Z,99.99
2022-08-05T04:19:28.818Z,99.99
2022-08-05T04:20:28.788Z,99.99
2022-08-05T04:22:08.824Z,99.99
2022-08-05T04:22:29.789Z,99.99
2022-08-05T04:24:05.368Z,99.99
2022-08-05T04:24:29.739Z,99.99
2022-08-05T04:25:57.057Z,99.99
2022-08-05T04:26:32.410Z,99.99
2022-08-05T04:27:41.967Z,99.99
2022-08-05T04:28:31.688Z,99.99
2022-08-05T04:29:28.663Z,99.99
2022-08-05T04:30:28.657Z,99.99
2022-08-05T04:31:33.974Z,99.99
2022-08-05T04:32:33.389Z,99.99
2022-08-05T04:34:18.524Z,99.99
2022-08-05T04:34:32.671Z,99.99
2022-08-05T04:36:15.551Z,99.99
2022-08-05T04:36:49.674Z,99.99
2022-08-05T04:38:00.928Z,99.99
2022-08-05T04:38:39.498Z,99.99
2022-08-05T04:39:29.565Z,99.99
2022-08-05T04:40:28.531Z,99.99
2022-08-05T04:41:36.882Z,99.99
2022-08-05T04:42:29.497Z,99.99
2022-08-05T04:43:28.495Z,99.99
2022-08-05T04:44:29.549Z,99.99
2022-08-05T04:45:47.825Z,99.99
2022-08-05T04:46:29.451Z,99.99
2022-08-05T04:47:28.437Z,99.99
2022-08-05T04:48:29.421Z,99.99
2022-08-05T04:49:38.337Z,99.99
2022-08-05T04:50:34.376Z,99.99
2022-08-05T04:51:32.413Z,99.99
2022-08-05T04:52:33.448Z,99.99
2022-08-05T04:53:28.366Z,99.99
2022-08-05T04:54:29.342Z,99.99
2022-08-05T04:56:15.216Z,99.99
2022-08-05T04:56:34.792Z,99.99
2022-08-05T04:57:29.687Z,99.99
2022-08-05T04:58:29.294Z,99.99
2022-08-05T04:59:38.607Z,99.99
2022-08-05T05:00:30.077Z,99.99
2022-08-05T05:01:59.659Z,99.99
2022-08-05T05:02:37.225Z,99.99
2022-08-05T05:03:29.225Z,99.99
2022-08-05T05:04:29.218Z,99.99
2022-08-05T05:05:29.338Z,99.99
2022-08-05T05:06:39.670Z,99.99
2022-08-05T05:07:31.929Z,99.99
2022-08-05T05:08:30.475Z,99.99
2022-08-05T05:09:28.147Z,99.99
2022-08-05T05:10:29.481Z,99.99
2022-08-05T05:11:54.011Z,99.99
2022-08-05T05:12:32.156Z,99.99
2022-08-05T05:13:32.435Z,99.99
2022-08-05T05:14:31.914Z,99.99
2022-08-05T05:15:57.154Z,99.99
2022-08-05T05:16:30.362Z,99.99
2022-08-05T05:17:56.899Z,99.99
2022-08-05T05:18:33.671Z,99.99
2022-08-05T05:19:39.640Z,99.99
2022-08-05T05:20:29.073Z,99.99
2022-08-05T05:21:28.002Z,99.99
2022-08-05T05:22:29.013Z,99.99
2022-08-05T05:23:39.163Z,99.99
2022-08-05T05:24:56.055Z,99.99
2022-08-05T05:25:40.239Z,99.99
2022-08-05T05:26:32.974Z,99.88
2022-08-05T05:27:41.735Z,99.88
2022-08-05T05:28:28.930Z,99.88
2022-08-05T05:30:03.519Z,99.88
2022-08-05T05:30:33.354Z,99.88
2022-08-05T05:32:05.446Z,99.54
2022-08-05T05:33:16.092Z,99.33
2022-08-05T05:34:06.418Z,99.33
2022-08-05T05:35:05.984Z,99.24
2022-08-05T05:36:05.397Z,99.13
2022-08-05T05:37:05.412Z,98.99
2022-08-05T05:38:05.484Z,98.79
2022-08-05T05:39:05.450Z,98.68
2022-08-05T05:40:06.331Z,98.68
2022-08-05T05:41:05.315Z,98.58
2022-08-05T05:42:05.313Z,98.58
2022-08-05T05:43:05.282Z,98.44
2022-08-05T05:44:05.273Z,98.24
2022-08-05T05:45:06.283Z,98.13
2022-08-05T05:46:06.854Z,98.03
2022-08-05T05:47:13.096Z,97.93
2022-08-05T05:48:08.377Z,97.83
2022-08-05T05:49:06.599Z,97.69
2022-08-05T05:50:06.245Z,97.49
2022-08-05T05:51:14.902Z,97.38
2022-08-05T05:52:09.180Z,97.24
2022-08-05T05:53:20.860Z,96.93
2022-08-05T05:54:06.127Z,96.73
2022-08-05T05:55:13.102Z,96.39
2022-08-05T05:56:06.131Z,96.08
2022-08-05T05:57:05.077Z,95.78
2022-08-05T05:58:06.068Z,95.28
2022-08-05T05:59:05.621Z,95.07
2022-08-05T06:00:05.056Z,94.87
2022-08-05T06:01:13.394Z,94.47
2022-08-05T06:02:06.179Z,94.07
2022-08-05T06:03:40.210Z,93.87
2022-08-05T06:04:06.014Z,93.87
2022-08-05T06:05:10.628Z,94.07
2022-08-05T06:06:05.955Z,94.07
2022-08-05T06:07:04.933Z,94.07
2022-08-05T06:08:04.973Z,93.77
2022-08-05T06:09:04.946Z,93.77
2022-08-05T06:10:09.956Z,93.37
2022-08-05T06:11:08.882Z,93.41
2022-08-05T06:12:09.698Z,93.31
2022-08-05T06:13:04.852Z,93.41
2022-08-05T06:14:04.874Z,93.41
2022-08-05T06:15:04.828Z,93.15
2022-08-05T06:16:29.649Z,93.35
2022-08-05T06:17:24.683Z,93.50
2022-08-05T06:18:05.784Z,93.90
2022-08-05T06:19:05.798Z,94.40
2022-08-05T06:20:04.791Z,94.60
2022-08-05T06:21:04.737Z,94.81
2022-08-05T06:22:04.735Z,94.91
2022-08-05T06:23:04.722Z,95.01
2022-08-05T06:24:04.696Z,94.91
2022-08-05T06:25:50.537Z,95.01
2022-08-05T06:26:13.462Z,95.21
2022-08-05T06:27:05.650Z,95.31
2022-08-05T06:28:12.174Z,95.31
2022-08-05T06:29:06.898Z,94.95
2022-08-05T06:30:20.087Z,94.75
2022-08-05T06:31:10.888Z,94.85
2022-08-05T06:32:21.143Z,95.06
2022-08-05T06:33:05.561Z,95.26
2022-08-05T06:34:07.117Z,95.15
2022-08-05T06:35:05.806Z,95.36
2022-08-05T06:36:09.778Z,95.56
2022-08-05T06:37:05.513Z,95.36
2022-08-05T06:38:11.696Z,95.46
2022-08-05T06:39:05.521Z,95.61
2022-08-05T06:40:04.464Z,95.61
2022-08-05T06:41:04.476Z,95.81
2022-08-05T06:42:04.467Z,95.81
2022-08-05T06:43:04.415Z,96.01
2022-08-05T06:44:04.437Z,96.01
2022-08-05T06:45:05.552Z,96.06
2022-08-05T06:46:07.223Z,95.61
2022-08-05T06:47:04.438Z,95.70
2022-08-05T06:48:36.988Z,95.66
2022-08-05T06:49:07.681Z,95.76
2022-08-05T06:50:05.191Z,95.86
2022-08-05T06:51:09.536Z,95.96
2022-08-05T06:52:07.311Z,95.96
2022-08-05T06:53:19.534Z,95.96
2022-08-05T06:54:05.313Z,95.81
2022-08-05T06:55:04.344Z,95.61
2022-08-05T06:56:04.283Z,95.41
2022-08-05T06:57:14.108Z,95.26
2022-08-05T06:58:19.982Z,95.15
2022-08-05T06:59:08.678Z,94.95
2022-08-05T07:00:04.356Z,95.15
2022-08-05T07:01:04.237Z,95.46
2022-08-05T07:02:04.927Z,95.15
2022-08-05T07:03:04.240Z,95.15
2022-08-05T07:04:05.150Z,95.06
2022-08-05T07:05:04.136Z,95.15
2022-08-05T07:06:06.266Z,95.40
2022-08-05T07:07:08.100Z,95.61
2022-08-05T07:08:04.127Z,95.61
2022-08-05T07:09:04.646Z,95.50
2022-08-05T07:10:04.062Z,95.61
2022-08-05T07:11:07.030Z,95.61
2022-08-05T07:12:08.027Z,95.76
2022-08-05T07:13:04.001Z,95.86
2022-08-05T07:14:04.265Z,95.66
2022-08-05T07:15:03.971Z,95.66
2022-08-05T07:16:04.547Z,95.66
2022-08-05T07:17:59.792Z,95.66
2022-08-05T07:18:09.829Z,95.66
2022-08-05T07:19:04.921Z,95.76
2022-08-05T07:20:32.414Z,95.92
2022-08-05T07:21:05.685Z,95.92
2022-08-05T07:22:04.622Z,95.72
2022-08-05T07:23:04.562Z,95.61
2022-08-05T07:24:03.857Z,95.61
2022-08-05T07:25:22.089Z,95.41
2022-08-05T07:26:04.818Z,95.31
2022-08-05T07:27:04.564Z,95.21
2022-08-05T07:28:06.069Z,95.11
2022-08-05T07:29:03.797Z,95.11
2022-08-05T07:30:24.007Z,94.91
2022-08-05T07:31:07.759Z,94.31
2022-08-05T07:32:07.541Z,94.20
2022-08-05T07:33:08.799Z,94.31
2022-08-05T07:34:08.302Z,94.51
2022-08-05T07:36:03.257Z,94.60
2022-08-05T07:36:20.209Z,94.20
2022-08-05T07:37:06.193Z,94.00
2022-08-05T07:38:03.789Z,94.00
2022-08-05T07:39:05.610Z,93.80
2022-08-05T07:40:31.969Z,93.90
2022-08-05T07:42:07.354Z,94.00
2022-08-05T07:42:12.961Z,94.10
2022-08-05T07:43:13.821Z,93.70
2022-08-05T07:44:04.565Z,92.99
2022-08-05T07:45:03.546Z,93.19
2022-08-05T07:46:04.535Z,93.30
2022-08-05T07:47:07.834Z,93.46
2022-08-05T07:48:03.533Z,93.66
2022-08-05T07:49:06.135Z,93.15
2022-08-05T07:50:06.651Z,92.55
2022-08-05T07:51:08.720Z,92.65
2022-08-05T07:52:08.231Z,92.95
2022-08-05T07:53:03.446Z,93.15
2022-08-05T07:54:03.416Z,93.35
2022-08-05T07:55:03.436Z,93.46
2022-08-05T07:56:06.272Z,93.26
2022-08-05T07:57:17.982Z,93.05
2022-08-05T07:58:04.858Z,93.05
2022-08-05T07:59:03.343Z,92.75
2022-08-05T08:00:03.372Z,92.65
2022-08-05T08:01:06.142Z,92.75
2022-08-05T08:02:04.310Z,92.65
2022-08-05T08:03:14.322Z,92.55
2022-08-05T08:04:04.322Z,92.55
2022-08-05T08:05:03.259Z,92.65
2022-08-05T08:06:03.292Z,92.71
2022-08-05T08:07:05.439Z,92.71
2022-08-05T08:08:03.210Z,92.80
2022-08-05T08:09:03.203Z,92.60
2022-08-05T08:10:03.185Z,92.60
2022-08-05T08:11:08.779Z,92.60
2022-08-05T08:12:17.159Z,92.20
2022-08-05T08:13:04.164Z,92.20
2022-08-05T08:14:03.134Z,91.60
2022-08-05T08:15:03.567Z,91.30
2022-08-05T08:16:35.143Z,91.70
2022-08-05T08:17:04.118Z,91.60
2022-08-05T08:18:05.037Z,91.80
2022-08-05T08:19:04.058Z,91.60
2022-08-05T08:20:21.454Z,91.19
2022-08-05T08:21:04.239Z,90.39
2022-08-05T08:22:04.018Z,90.19
2022-08-05T08:23:03.302Z,90.19
2022-08-05T08:24:05.308Z,90.19
2022-08-05T08:25:15.882Z,90.09
2022-08-05T08:26:04.616Z,90.33
2022-08-05T08:27:02.972Z,90.53
2022-08-05T08:28:02.933Z,90.64
2022-08-05T08:29:29.569Z,90.73
2022-08-05T08:30:19.002Z,90.73
2022-08-05T08:31:06.913Z,90.73
2022-08-05T08:32:05.876Z,90.84
2022-08-05T08:33:08.066Z,91.08
2022-08-05T08:34:02.874Z,91.28
2022-08-05T08:35:02.847Z,91.38
2022-08-05T08:36:29.420Z,91.49
2022-08-05T08:37:05.473Z,91.69
2022-08-05T08:38:02.779Z,91.99
2022-08-05T08:39:02.832Z,92.14
2022-08-05T08:40:04.308Z,92.35
2022-08-05T08:41:02.737Z,92.59
2022-08-05T08:42:05.504Z,92.39
2022-08-05T08:43:20.987Z,92.39
2022-08-05T08:45:17.856Z,92.65
2022-08-05T08:45:23.097Z,92.85
2022-08-05T08:46:03.658Z,93.05
2022-08-05T08:47:02.652Z,93.05
2022-08-05T08:48:11.824Z,93.05
2022-08-05T08:50:22.218Z,92.95
2022-08-05T08:50:30.605Z,92.95
2022-08-05T08:51:54.633Z,92.95
2022-08-05T08:52:13.719Z,93.26
2022-08-05T08:53:08.043Z,93.26
2022-08-05T08:54:03.551Z,93.35
2022-08-05T08:55:02.532Z,93.46
2022-08-05T08:56:06.034Z,93.55
2022-08-05T08:57:02.503Z,93.86
2022-08-05T08:58:02.544Z,93.55
2022-08-05T08:59:05.853Z,93.46
2022-08-05T09:00:04.403Z,93.05
2022-08-05T09:01:02.512Z,92.65
2022-08-05T09:02:02.430Z,92.65
2022-08-05T09:03:02.430Z,92.85
2022-08-05T09:04:02.429Z,92.91
2022-08-05T09:05:16.430Z,93.01
2022-08-05T09:06:09.234Z,93.11
2022-08-05T09:07:03.361Z,93.11
2022-08-05T09:08:03.364Z,93.07
2022-08-05T09:09:02.395Z,92.76
2022-08-05T09:10:02.321Z,92.66
2022-08-05T09:11:05.302Z,92.52
2022-08-05T09:12:14.461Z,92.52
2022-08-05T09:13:04.811Z,92.52
2022-08-05T09:14:54.867Z,92.52
2022-08-05T09:15:06.202Z,92.47
2022-08-05T09:16:02.232Z,92.47
2022-08-05T09:17:02.254Z,92.47
2022-08-05T09:18:02.204Z,92.27
2022-08-05T09:19:06.898Z,91.97
2022-08-05T09:20:05.270Z,91.67
2022-08-05T09:21:02.166Z,91.47
2022-08-05T09:22:23.342Z,91.06
2022-08-05T09:23:05.465Z,91.11
2022-08-05T09:24:02.508Z,91.01
2022-08-05T09:25:02.112Z,91.21
2022-08-05T09:26:06.231Z,91.51
2022-08-05T09:27:02.077Z,91.82
2022-08-05T09:28:04.025Z,90.91
2022-08-05T09:29:02.072Z,90.55
2022-08-05T09:30:06.305Z,91.05
2022-08-05T09:31:43.353Z,90.65
2022-08-05T09:32:42.253Z,91.11
2022-08-05T09:33:04.586Z,91.01
2022-08-05T09:34:02.012Z,90.91
2022-08-05T09:35:02.508Z,90.75
2022-08-05T09:36:11.555Z,90.85
2022-08-05T09:37:02.933Z,90.15
2022-08-05T09:38:12.871Z,90.75
2022-08-05T09:39:02.979Z,91.25
2022-08-05T09:40:01.934Z,91.66
2022-08-05T09:41:01.884Z,91.75
2022-08-05T09:42:01.866Z,91.86
2022-08-05T09:43:01.854Z,91.86
2022-08-05T09:44:01.839Z,91.86
2022-08-05T09:45:03.393Z,91.66
2022-08-05T09:46:07.830Z,91.35
2022-08-05T09:47:02.796Z,91.25
2022-08-05T09:48:02.783Z,91.46
2022-08-05T09:49:08.239Z,91.51
2022-08-05T09:50:03.460Z,91.41
2022-08-05T09:51:04.759Z,91.41
2022-08-05T09:53:26.149Z,91.61
2022-08-05T09:54:16.067Z,91.21
2022-08-05T09:55:58.716Z,90.15
2022-08-05T09:56:16.068Z,89.48
2022-08-05T09:57:20.679Z,89.99
2022-08-05T09:58:16.008Z,90.09
2022-08-05T09:59:16.868Z,90.39
2022-08-05T10:00:15.756Z,90.59
2022-08-05T10:01:31.538Z,91.09
2022-08-05T10:02:16.763Z,91.19
2022-08-05T10:03:14.944Z,91.39
2022-08-05T10:04:17.300Z,91.55
2022-08-05T10:05:14.913Z,91.66
2022-08-05T10:06:15.926Z,91.35
2022-08-05T10:07:20.865Z,91.46
2022-08-05T10:08:36.297Z,91.55
2022-08-05T10:09:27.418Z,91.75
2022-08-05T10:10:15.863Z,91.35
2022-08-05T10:11:14.876Z,91.55
2022-08-05T10:12:18.664Z,91.75
2022-08-05T10:13:18.825Z,91.66
2022-08-05T10:14:14.785Z,91.55
2022-08-05T10:15:16.431Z,91.75
2022-08-05T10:16:14.756Z,91.91
2022-08-05T10:17:37.680Z,92.22
2022-08-05T10:18:16.959Z,92.41
2022-08-05T10:19:14.716Z,92.27
2022-08-05T10:20:14.726Z,92.27
2022-08-05T10:21:15.786Z,92.47
2022-08-05T10:22:15.533Z,92.17
2022-08-05T10:23:34.321Z,92.17
2022-08-05T10:24:15.679Z,92.17
2022-08-05T10:25:14.640Z,92.37
2022-08-05T10:26:15.119Z,92.47
2022-08-05T10:27:14.664Z,92.57
2022-08-05T10:28:19.122Z,92.68
2022-08-05T10:29:19.176Z,92.77
2022-08-05T10:31:20.479Z,92.53
2022-08-05T10:32:48.301Z,92.43
2022-08-05T10:32:53.046Z,92.33
2022-08-05T10:33:18.534Z,91.88
2022-08-05T10:34:14.516Z,91.58
2022-08-05T10:35:14.533Z,90.72
2022-08-05T10:36:15.632Z,90.98
2022-08-05T10:37:14.475Z,91.48
2022-08-05T10:38:14.465Z,91.44
2022-08-05T10:39:24.513Z,91.38
2022-08-05T10:40:18.077Z,90.78
2022-08-05T10:41:14.452Z,90.17
2022-08-05T10:42:15.404Z,91.13
2022-08-05T10:43:14.388Z,91.22
2022-08-05T10:44:14.378Z,91.42
2022-08-05T10:45:23.605Z,91.72
2022-08-05T10:46:15.350Z,92.13
2022-08-05T10:47:26.725Z,92.23
2022-08-05T10:48:31.710Z,92.33
2022-08-05T10:49:16.464Z,92.23
2022-08-05T10:50:33.192Z,92.13
2022-08-05T10:51:21.489Z,91.83
2022-08-05T10:52:18.321Z,91.32
2022-08-05T10:53:17.618Z,91.02
2022-08-05T10:54:31.096Z,91.06
2022-08-05T10:55:16.063Z,91.06
2022-08-05T10:56:21.067Z,91.17
2022-08-05T10:57:15.195Z,91.47
2022-08-05T10:58:15.640Z,91.77
2022-08-05T11:00:03.451Z,92.03
2022-08-05T11:00:19.845Z,92.13
2022-08-05T11:01:15.205Z,92.03
2022-08-05T11:02:37.656Z,91.93
2022-08-05T11:03:26.006Z,91.93
2022-08-05T11:04:15.109Z,92.13
2022-08-05T11:05:14.098Z,91.63
2022-08-05T11:06:15.048Z,91.63
2022-08-05T11:07:14.118Z,91.83
2022-08-05T11:08:34.077Z,92.23
2022-08-05T11:09:16.638Z,92.38
2022-08-05T11:10:14.025Z,92.38
2022-08-05T11:11:16.709Z,92.08
2022-08-05T11:12:17.084Z,91.48
2022-08-05T11:13:17.018Z,90.22
2022-08-05T11:14:13.964Z,89.92
2022-08-05T11:15:20.134Z,89.92
2022-08-05T11:16:14.953Z,89.82
2022-08-05T11:17:58.676Z,89.92
2022-08-05T11:18:15.193Z,90.42
2022-08-05T11:20:11.534Z,90.48
2022-08-05T11:20:18.430Z,90.58
2022-08-05T11:21:13.866Z,90.68
2022-08-05T11:22:13.864Z,90.73
2022-08-05T11:23:13.875Z,90.53
2022-08-05T11:24:29.646Z,90.29
2022-08-05T11:26:03.217Z,90.19
2022-08-05T11:26:14.808Z,90.09
2022-08-05T11:27:13.786Z,90.05
2022-08-05T11:28:17.232Z,89.54
2022-08-05T11:29:14.451Z,89.20
2022-08-05T11:30:13.807Z,88.90
2022-08-05T11:31:19.540Z,88.96
2022-08-05T11:32:17.720Z,88.82
2022-08-05T11:33:20.913Z,88.71
2022-08-05T11:34:15.087Z,88.07
2022-08-05T11:35:15.559Z,87.68
2022-08-05T11:36:13.661Z,87.07
2022-08-05T11:38:26.798Z,86.77
2022-08-05T11:38:36.875Z,86.33
2022-08-05T11:39:14.656Z,85.31
2022-08-05T11:40:13.613Z,86.01
2022-08-05T11:41:56.459Z,86.07
2022-08-05T11:42:18.327Z,86.18
2022-08-05T11:43:13.572Z,85.11
2022-08-05T11:44:40.906Z,85.31
2022-08-05T11:46:15.572Z,85.71
2022-08-05T11:46:30.818Z,85.61
2022-08-05T11:47:48.777Z,85.61
2022-08-05T11:48:14.667Z,85.91
2022-08-05T11:49:13.488Z,85.91
2022-08-05T11:50:14.071Z,86.01
2022-08-05T11:51:13.487Z,86.52
2022-08-05T11:52:17.439Z,85.71
2022-08-05T11:53:17.493Z,86.01
2022-08-05T11:54:13.929Z,85.11
2022-08-05T11:55:13.409Z,85.31
2022-08-05T11:56:13.399Z,85.51
2022-08-05T11:57:26.041Z,85.17
2022-08-05T11:58:14.361Z,84.57
2022-08-05T11:59:13.617Z,83.57
2022-08-05T12:00:13.333Z,83.27
2022-08-05T12:01:13.330Z,82.97
2022-08-05T12:02:23.820Z,83.33
2022-08-05T12:03:14.342Z,83.23
2022-08-05T12:04:13.684Z,83.89
2022-08-05T12:05:18.121Z,83.89
2022-08-05T12:06:14.265Z,83.49
2022-08-05T12:07:13.232Z,83.25
2022-08-05T12:08:18.200Z,82.25
2022-08-05T12:09:20.069Z,82.45
2022-08-05T12:10:14.226Z,83.15
2022-08-05T12:11:17.263Z,83.21
2022-08-05T12:12:17.170Z,82.11
2022-08-05T12:13:18.723Z,82.01
2022-08-05T12:14:14.327Z,82.51
2022-08-05T12:15:16.708Z,82.41
2022-08-05T12:16:15.543Z,82.15
2022-08-05T12:17:57.862Z,81.65
2022-08-05T12:18:14.324Z,82.29
2022-08-05T12:20:27.063Z,82.69
2022-08-05T12:20:27.852Z,83.13
2022-08-05T12:21:15.223Z,83.13
2022-08-05T12:22:13.032Z,84.03
2022-08-05T12:23:14.013Z,84.53
2022-08-05T12:24:13.011Z,84.33
2022-08-05T12:25:14.278Z,84.37
2022-08-05T12:26:13.000Z,85.21
2022-08-05T12:27:25.153Z,85.51
2022-08-05T12:28:15.691Z,85.75
2022-08-05T12:29:16.260Z,85.75
2022-08-05T12:30:15.254Z,85.85
2022-08-05T12:31:12.906Z,86.55
2022-08-05T12:32:16.914Z,86.30
2022-08-05T12:33:27.297Z,85.19
2022-08-05T12:34:20.621Z,84.13
2022-08-05T12:35:13.857Z,83.27
2022-08-05T12:36:13.875Z,83.97
2022-08-05T12:37:17.259Z,84.88
2022-08-05T12:38:13.810Z,85.47
2022-08-05T12:39:12.837Z,85.68
2022-08-05T12:40:26.882Z,85.17
2022-08-05T12:41:14.134Z,85.27
2022-08-05T12:42:14.295Z,85.38
2022-08-05T12:43:12.772Z,85.47
2022-08-05T12:44:14.465Z,84.01
2022-08-05T12:45:13.722Z,84.01
2022-08-05T12:46:12.703Z,85.92
2022-08-05T12:47:12.890Z,84.55
2022-08-05T12:48:27.827Z,85.25
2022-08-05T12:49:14.210Z,84.45
2022-08-05T12:50:12.671Z,84.99
2022-08-05T12:52:10.224Z,85.19
2022-08-05T12:52:23.883Z,85.86
2022-08-05T12:53:16.626Z,85.75
2022-08-05T12:54:16.481Z,86.46